sensor_id;sensor_type;location;lat;lon;timestamp;P1;durP1;ratioP1;P2;durP2;ratioP2
64966;SDS011;51710;38.732;-121.358;2022-11-25T00:01:10;17.38;;;7.57;;
64966;SDS011;51710;38.732;-121.358;2022-11-25T00:03:39;15.43;;;6.88;;
64966;SDS011;51710;38.732;-121.358;2022-11-25T00:06:08;13.30;;;6.47;;
64966;SDS011;51710;38.732;-121.358;2022-11-25T00:08:43;14.52;;;6.72;;
64966;SDS011;51710;38.732;-121.358;2022-11-25T00:11:12;14.30;;;6.80;;
64966;SDS011;51710;38.732;-121.358;2022-11-25T00:13:40;14.57;;;6.57;;
64966;SDS011;51710;38.732;-121.358;2022-11-25T00:16:10;17.42;;;7.68;;
64966;SDS011;51710;38.732;-121.358;2022-11-25T00:18:44;15.02;;;6.90;;
64966;SDS011;51710;38.732;-121.358;2022-11-25T00:21:13;18.40;;;7.30;;
64966;SDS011;51710;38.732;-121.358;2022-11-25T00:23:41;13.68;;;7.00;;
64966;SDS011;51710;38.732;-121.358;2022-11-25T00:26:11;14.60;;;6.80;;
64966;SDS011;51710;38.732;-121.358;2022-11-25T00:28:41;13.82;;;6.53;;
64966;SDS011;51710;38.732;-121.358;2022-11-25T00:31:11;16.83;;;7.22;;
64966;SDS011;51710;38.732;-121.358;2022-11-25T00:33:40;14.88;;;6.97;;
64966;SDS011;51710;38.732;-121.358;2022-11-25T00:38:57;17.30;;;7.95;;
64966;SDS011;51710;38.732;-121.358;2022-11-25T00:41:25;17.08;;;7.57;;
64966;SDS011;51710;38.732;-121.358;2022-11-25T00:44:11;15.38;;;7.50;;
64966;SDS011;51710;38.732;-121.358;2022-11-25T00:46:57;14.05;;;7.40;;
64966;SDS011;51710;38.732;-121.358;2022-11-25T00:49:25;15.93;;;6.65;;
64966;SDS011;51710;38.732;-121.358;2022-11-25T00:51:53;17.05;;;7.88;;
64966;SDS011;51710;38.732;-121.358;2022-11-25T00:54:20;18.08;;;7.15;;
64966;SDS011;51710;38.732;-121.358;2022-11-25T00:56:47;17.13;;;7.82;;
64966;SDS011;51710;38.732;-121.358;2022-11-25T00:59:15;13.35;;;6.90;;
64966;SDS011;51710;38.732;-121.358;2022-11-25T01:01:42;16.50;;;8.07;;
64966;SDS011;51710;38.732;-121.358;2022-11-25T01:04:10;18.70;;;7.68;;
64966;SDS011;51710;38.732;-121.358;2022-11-25T01:06:37;22.75;;;8.55;;
64966;SDS011;51710;38.732;-121.358;2022-11-25T01:09:05;19.08;;;7.97;;
64966;SDS011;51710;38.732;-121.358;2022-11-25T01:11:32;17.20;;;7.85;;
64966;SDS011;51710;38.732;-121.358;2022-11-25T01:13:59;16.90;;;7.88;;
64966;SDS011;51710;38.732;-121.358;2022-11-25T01:16:25;19.67;;;7.35;;
64966;SDS011;51710;38.732;-121.358;2022-11-25T01:18:52;13.82;;;7.38;;
64966;SDS011;51710;38.732;-121.358;2022-11-25T01:21:20;17.73;;;8.15;;
64966;SDS011;51710;38.732;-121.358;2022-11-25T01:23:49;14.98;;;7.55;;
64966;SDS011;51710;38.732;-121.358;2022-11-25T01:26:20;17.55;;;8.27;;
64966;SDS011;51710;38.732;-121.358;2022-11-25T01:28:51;18.02;;;8.63;;
64966;SDS011;51710;38.732;-121.358;2022-11-25T01:31:21;16.13;;;8.57;;
64966;SDS011;51710;38.732;-121.358;2022-11-25T01:33:59;17.50;;;7.30;;
64966;SDS011;51710;38.732;-121.358;2022-11-25T01:36:29;14.70;;;7.93;;
64966;SDS011;51710;38.732;-121.358;2022-11-25T01:38:57;13.35;;;7.63;;
64966;SDS011;51710;38.732;-121.358;2022-11-25T01:41:25;14.40;;;6.85;;
64966;SDS011;51710;38.732;-121.358;2022-11-25T01:44:11;16.38;;;7.85;;
64966;SDS011;51710;38.732;-121.358;2022-11-25T01:49:28;20.52;;;8.38;;
64966;SDS011;51710;38.732;-121.358;2022-11-25T01:55:00;15.32;;;7.20;;
64966;SDS011;51710;38.732;-121.358;2022-11-25T01:57:45;16.88;;;7.18;;
64966;SDS011;51710;38.732;-121.358;2022-11-25T02:00:17;15.27;;;6.78;;
64966;SDS011;51710;38.732;-121.358;2022-11-25T02:02:45;14.27;;;7.55;;
64966;SDS011;51710;38.732;-121.358;2022-11-25T02:05:15;13.32;;;6.57;;
64966;SDS011;51710;38.732;-121.358;2022-11-25T02:07:45;12.88;;;6.55;;
64966;SDS011;51710;38.732;-121.358;2022-11-25T02:10:18;14.00;;;7.15;;
64966;SDS011;51710;38.732;-121.358;2022-11-25T02:12:50;14.45;;;7.00;;
64966;SDS011;51710;38.732;-121.358;2022-11-25T02:15:17;15.23;;;7.00;;
64966;SDS011;51710;38.732;-121.358;2022-11-25T02:17:45;14.30;;;6.82;;
64966;SDS011;51710;38.732;-121.358;2022-11-25T02:20:14;12.30;;;6.57;;
64966;SDS011;51710;38.732;-121.358;2022-11-25T02:25:50;12.48;;;6.65;;
64966;SDS011;51710;38.732;-121.358;2022-11-25T02:28:22;15.00;;;7.28;;
64966;SDS011;51710;38.732;-121.358;2022-11-25T02:30:52;18.08;;;7.63;;
64966;SDS011;51710;38.732;-121.358;2022-11-25T02:33:20;16.38;;;8.00;;
64966;SDS011;51710;38.732;-121.358;2022-11-25T02:41:18;15.15;;;7.70;;
64966;SDS011;51710;38.732;-121.358;2022-11-25T02:43:51;12.15;;;7.18;;
64966;SDS011;51710;38.732;-121.358;2022-11-25T02:46:19;14.70;;;7.50;;
64966;SDS011;51710;38.732;-121.358;2022-11-25T02:48:49;15.35;;;7.65;;
64966;SDS011;51710;38.732;-121.358;2022-11-25T02:51:18;14.57;;;7.82;;
64966;SDS011;51710;38.732;-121.358;2022-11-25T02:53:47;15.50;;;7.78;;
64966;SDS011;51710;38.732;-121.358;2022-11-25T02:56:14;14.50;;;7.97;;
64966;SDS011;51710;38.732;-121.358;2022-11-25T02:58:44;16.85;;;8.70;;
64966;SDS011;51710;38.732;-121.358;2022-11-25T03:01:12;21.58;;;9.93;;
64966;SDS011;51710;38.732;-121.358;2022-11-25T03:03:39;17.23;;;8.38;;
64966;SDS011;51710;38.732;-121.358;2022-11-25T03:06:06;19.35;;;8.95;;
64966;SDS011;51710;38.732;-121.358;2022-11-25T03:08:34;17.73;;;8.40;;
64966;SDS011;51710;38.732;-121.358;2022-11-25T03:11:02;15.18;;;8.57;;
64966;SDS011;51710;38.732;-121.358;2022-11-25T03:13:30;15.93;;;8.52;;
64966;SDS011;51710;38.732;-121.358;2022-11-25T03:15:57;18.73;;;8.23;;
64966;SDS011;51710;38.732;-121.358;2022-11-25T03:18:25;20.05;;;9.55;;
64966;SDS011;51710;38.732;-121.358;2022-11-25T03:20:52;22.27;;;11.25;;
64966;SDS011;51710;38.732;-121.358;2022-11-25T03:23:20;15.40;;;8.43;;
64966;SDS011;51710;38.732;-121.358;2022-11-25T03:25:47;15.30;;;8.15;;
64966;SDS011;51710;38.732;-121.358;2022-11-25T03:28:14;17.10;;;7.80;;
64966;SDS011;51710;38.732;-121.358;2022-11-25T03:30:41;16.13;;;9.27;;
64966;SDS011;51710;38.732;-121.358;2022-11-25T03:33:08;18.25;;;9.07;;
64966;SDS011;51710;38.732;-121.358;2022-11-25T03:35:35;18.75;;;9.68;;
64966;SDS011;51710;38.732;-121.358;2022-11-25T03:38:03;16.27;;;9.02;;
64966;SDS011;51710;38.732;-121.358;2022-11-25T03:40:31;17.42;;;9.20;;
64966;SDS011;51710;38.732;-121.358;2022-11-25T03:42:58;17.77;;;9.45;;
64966;SDS011;51710;38.732;-121.358;2022-11-25T03:45:25;17.73;;;8.85;;
64966;SDS011;51710;38.732;-121.358;2022-11-25T03:47:51;19.58;;;9.55;;
64966;SDS011;51710;38.732;-121.358;2022-11-25T03:50:18;21.20;;;10.05;;
64966;SDS011;51710;38.732;-121.358;2022-11-25T03:52:45;17.98;;;8.95;;
64966;SDS011;51710;38.732;-121.358;2022-11-25T03:55:12;17.23;;;10.18;;
64966;SDS011;51710;38.732;-121.358;2022-11-25T03:57:40;19.95;;;9.80;;
64966;SDS011;51710;38.732;-121.358;2022-11-25T04:00:07;19.45;;;9.60;;
64966;SDS011;51710;38.732;-121.358;2022-11-25T04:02:35;22.50;;;11.00;;
64966;SDS011;51710;38.732;-121.358;2022-11-25T04:05:02;22.08;;;10.82;;
64966;SDS011;51710;38.732;-121.358;2022-11-25T04:07:30;23.63;;;10.93;;
64966;SDS011;51710;38.732;-121.358;2022-11-25T04:09:56;22.30;;;10.82;;
64966;SDS011;51710;38.732;-121.358;2022-11-25T04:12:23;20.70;;;11.13;;
64966;SDS011;51710;38.732;-121.358;2022-11-25T04:15:07;25.02;;;12.55;;
64966;SDS011;51710;38.732;-121.358;2022-11-25T04:17:35;25.02;;;13.70;;
64966;SDS011;51710;38.732;-121.358;2022-11-25T04:20:02;23.35;;;12.82;;
64966;SDS011;51710;38.732;-121.358;2022-11-25T04:22:30;24.63;;;11.90;;
64966;SDS011;51710;38.732;-121.358;2022-11-25T04:24:56;26.20;;;13.43;;
64966;SDS011;51710;38.732;-121.358;2022-11-25T04:27:23;20.25;;;12.45;;
64966;SDS011;51710;38.732;-121.358;2022-11-25T04:29:49;24.00;;;12.00;;
64966;SDS011;51710;38.732;-121.358;2022-11-25T04:32:16;23.20;;;12.93;;
64966;SDS011;51710;38.732;-121.358;2022-11-25T04:34:42;23.73;;;12.27;;
64966;SDS011;51710;38.732;-121.358;2022-11-25T04:37:09;21.83;;;13.10;;
64966;SDS011;51710;38.732;-121.358;2022-11-25T04:39:36;22.90;;;13.32;;
64966;SDS011;51710;38.732;-121.358;2022-11-25T04:42:03;24.20;;;13.45;;
64966;SDS011;51710;38.732;-121.358;2022-11-25T04:44:48;23.15;;;12.35;;
64966;SDS011;51710;38.732;-121.358;2022-11-25T04:47:15;22.83;;;12.23;;
64966;SDS011;51710;38.732;-121.358;2022-11-25T04:49:42;18.65;;;11.75;;
64966;SDS011;51710;38.732;-121.358;2022-11-25T04:52:09;24.77;;;13.07;;
64966;SDS011;51710;38.732;-121.358;2022-11-25T04:54:36;21.83;;;12.63;;
64966;SDS011;51710;38.732;-121.358;2022-11-25T04:57:04;18.40;;;11.45;;
64966;SDS011;51710;38.732;-121.358;2022-11-25T04:59:30;20.27;;;12.20;;
64966;SDS011;51710;38.732;-121.358;2022-11-25T05:02:09;20.52;;;12.25;;
64966;SDS011;51710;38.732;-121.358;2022-11-25T05:04:37;18.23;;;11.25;;
64966;SDS011;51710;38.732;-121.358;2022-11-25T05:07:04;20.88;;;11.88;;
64966;SDS011;51710;38.732;-121.358;2022-11-25T05:09:30;21.73;;;12.95;;
64966;SDS011;51710;38.732;-121.358;2022-11-25T05:11:58;27.35;;;13.70;;
64966;SDS011;51710;38.732;-121.358;2022-11-25T05:14:25;22.60;;;12.20;;
64966;SDS011;51710;38.732;-121.358;2022-11-25T05:16:52;23.95;;;12.07;;
64966;SDS011;51710;38.732;-121.358;2022-11-25T05:19:19;22.05;;;11.80;;
64966;SDS011;51710;38.732;-121.358;2022-11-25T05:21:47;19.60;;;10.10;;
64966;SDS011;51710;38.732;-121.358;2022-11-25T05:24:14;20.05;;;11.05;;
64966;SDS011;51710;38.732;-121.358;2022-11-25T05:26:41;20.05;;;11.57;;
64966;SDS011;51710;38.732;-121.358;2022-11-25T05:29:09;18.95;;;11.73;;
64966;SDS011;51710;38.732;-121.358;2022-11-25T05:31:36;19.00;;;10.82;;
64966;SDS011;51710;38.732;-121.358;2022-11-25T05:34:03;16.80;;;10.75;;
64966;SDS011;51710;38.732;-121.358;2022-11-25T05:36:30;20.10;;;11.95;;
64966;SDS011;51710;38.732;-121.358;2022-11-25T05:38:57;22.63;;;11.27;;
64966;SDS011;51710;38.732;-121.358;2022-11-25T05:41:25;19.15;;;10.65;;
64966;SDS011;51710;38.732;-121.358;2022-11-25T05:43:52;21.35;;;10.98;;
64966;SDS011;51710;38.732;-121.358;2022-11-25T05:46:19;18.27;;;11.27;;
64966;SDS011;51710;38.732;-121.358;2022-11-25T05:48:46;21.10;;;11.82;;
64966;SDS011;51710;38.732;-121.358;2022-11-25T05:51:13;20.70;;;12.20;;
64966;SDS011;51710;38.732;-121.358;2022-11-25T05:53:39;21.30;;;11.65;;
64966;SDS011;51710;38.732;-121.358;2022-11-25T05:56:06;18.42;;;12.10;;
64966;SDS011;51710;38.732;-121.358;2022-11-25T05:58:34;19.83;;;12.73;;
64966;SDS011;51710;38.732;-121.358;2022-11-25T06:01:04;22.95;;;13.68;;
64966;SDS011;51710;38.732;-121.358;2022-11-25T06:03:33;20.05;;;13.15;;
64966;SDS011;51710;38.732;-121.358;2022-11-25T06:06:00;23.83;;;12.38;;
64966;SDS011;51710;38.732;-121.358;2022-11-25T06:08:27;19.50;;;12.70;;
64966;SDS011;51710;38.732;-121.358;2022-11-25T06:10:54;22.92;;;13.50;;
64966;SDS011;51710;38.732;-121.358;2022-11-25T06:13:21;22.50;;;14.05;;
64966;SDS011;51710;38.732;-121.358;2022-11-25T06:15:47;20.13;;;12.93;;
64966;SDS011;51710;38.732;-121.358;2022-11-25T06:18:15;17.95;;;11.27;;
64966;SDS011;51710;38.732;-121.358;2022-11-25T06:20:43;20.80;;;12.10;;
64966;SDS011;51710;38.732;-121.358;2022-11-25T06:23:10;17.35;;;12.18;;
64966;SDS011;51710;38.732;-121.358;2022-11-25T06:25:37;20.73;;;11.98;;
64966;SDS011;51710;38.732;-121.358;2022-11-25T06:28:04;21.35;;;12.68;;
64966;SDS011;51710;38.732;-121.358;2022-11-25T06:30:31;22.30;;;13.43;;
64966;SDS011;51710;38.732;-121.358;2022-11-25T06:32:58;20.52;;;12.35;;
64966;SDS011;51710;38.732;-121.358;2022-11-25T06:35:25;21.23;;;12.25;;
64966;SDS011;51710;38.732;-121.358;2022-11-25T06:37:52;18.33;;;11.18;;
64966;SDS011;51710;38.732;-121.358;2022-11-25T06:40:19;17.80;;;10.90;;
64966;SDS011;51710;38.732;-121.358;2022-11-25T06:42:46;19.15;;;11.85;;
64966;SDS011;51710;38.732;-121.358;2022-11-25T06:45:12;21.40;;;12.25;;
64966;SDS011;51710;38.732;-121.358;2022-11-25T06:47:39;17.73;;;11.52;;
64966;SDS011;51710;38.732;-121.358;2022-11-25T06:50:06;18.95;;;11.57;;
64966;SDS011;51710;38.732;-121.358;2022-11-25T06:52:34;21.92;;;11.98;;
64966;SDS011;51710;38.732;-121.358;2022-11-25T06:55:01;20.92;;;11.93;;
64966;SDS011;51710;38.732;-121.358;2022-11-25T06:57:28;18.92;;;11.45;;
64966;SDS011;51710;38.732;-121.358;2022-11-25T06:59:55;22.10;;;13.13;;
64966;SDS011;51710;38.732;-121.358;2022-11-25T07:02:21;19.63;;;11.68;;
64966;SDS011;51710;38.732;-121.358;2022-11-25T07:04:48;20.35;;;12.13;;
64966;SDS011;51710;38.732;-121.358;2022-11-25T07:07:15;21.02;;;12.85;;
64966;SDS011;51710;38.732;-121.358;2022-11-25T07:09:42;19.13;;;11.80;;
64966;SDS011;51710;38.732;-121.358;2022-11-25T07:12:09;24.17;;;12.38;;
64966;SDS011;51710;38.732;-121.358;2022-11-25T07:14:36;19.98;;;12.38;;
64966;SDS011;51710;38.732;-121.358;2022-11-25T07:17:03;16.25;;;11.20;;
64966;SDS011;51710;38.732;-121.358;2022-11-25T07:19:30;16.65;;;9.68;;
64966;SDS011;51710;38.732;-121.358;2022-11-25T07:22:00;18.10;;;11.15;;
64966;SDS011;51710;38.732;-121.358;2022-11-25T07:24:28;17.30;;;9.95;;
64966;SDS011;51710;38.732;-121.358;2022-11-25T07:26:55;17.05;;;8.82;;
64966;SDS011;51710;38.732;-121.358;2022-11-25T07:29:22;16.20;;;9.90;;
64966;SDS011;51710;38.732;-121.358;2022-11-25T07:31:49;16.73;;;9.75;;
64966;SDS011;51710;38.732;-121.358;2022-11-25T07:34:17;18.05;;;8.88;;
64966;SDS011;51710;38.732;-121.358;2022-11-25T07:36:46;13.38;;;8.38;;
64966;SDS011;51710;38.732;-121.358;2022-11-25T07:39:16;13.02;;;8.75;;
64966;SDS011;51710;38.732;-121.358;2022-11-25T07:41:44;16.88;;;9.48;;
64966;SDS011;51710;38.732;-121.358;2022-11-25T07:44:12;17.90;;;10.68;;
64966;SDS011;51710;38.732;-121.358;2022-11-25T07:46:40;15.50;;;9.18;;
64966;SDS011;51710;38.732;-121.358;2022-11-25T07:49:10;14.13;;;9.07;;
64966;SDS011;51710;38.732;-121.358;2022-11-25T07:51:51;15.38;;;9.27;;
64966;SDS011;51710;38.732;-121.358;2022-11-25T07:54:24;13.15;;;8.23;;
64966;SDS011;51710;38.732;-121.358;2022-11-25T07:56:51;13.13;;;7.38;;
64966;SDS011;51710;38.732;-121.358;2022-11-25T07:59:19;13.45;;;8.43;;
64966;SDS011;51710;38.732;-121.358;2022-11-25T08:01:51;14.75;;;8.82;;
64966;SDS011;51710;38.732;-121.358;2022-11-25T08:04:19;12.27;;;7.18;;
64966;SDS011;51710;38.732;-121.358;2022-11-25T08:06:47;16.95;;;6.88;;
64966;SDS011;51710;38.732;-121.358;2022-11-25T08:09:17;11.35;;;6.53;;
64966;SDS011;51710;38.732;-121.358;2022-11-25T08:11:46;10.85;;;6.43;;
64966;SDS011;51710;38.732;-121.358;2022-11-25T08:14:14;11.70;;;6.18;;
64966;SDS011;51710;38.732;-121.358;2022-11-25T08:16:41;14.93;;;6.70;;
64966;SDS011;51710;38.732;-121.358;2022-11-25T08:19:10;15.02;;;7.95;;
64966;SDS011;51710;38.732;-121.358;2022-11-25T08:21:39;12.52;;;8.23;;
64966;SDS011;51710;38.732;-121.358;2022-11-25T08:24:06;12.65;;;7.85;;
64966;SDS011;51710;38.732;-121.358;2022-11-25T08:26:38;10.00;;;6.05;;
64966;SDS011;51710;38.732;-121.358;2022-11-25T08:29:05;11.00;;;6.00;;
64966;SDS011;51710;38.732;-121.358;2022-11-25T08:31:35;9.65;;;5.68;;
64966;SDS011;51710;38.732;-121.358;2022-11-25T08:34:03;8.75;;;5.50;;
64966;SDS011;51710;38.732;-121.358;2022-11-25T08:36:31;9.52;;;5.35;;
64966;SDS011;51710;38.732;-121.358;2022-11-25T08:39:00;10.32;;;5.53;;
64966;SDS011;51710;38.732;-121.358;2022-11-25T08:41:30;9.30;;;5.72;;
64966;SDS011;51710;38.732;-121.358;2022-11-25T08:44:00;9.88;;;6.05;;
64966;SDS011;51710;38.732;-121.358;2022-11-25T08:46:30;9.98;;;5.53;;
64966;SDS011;51710;38.732;-121.358;2022-11-25T08:49:01;8.30;;;5.03;;
64966;SDS011;51710;38.732;-121.358;2022-11-25T08:51:30;9.23;;;5.38;;
64966;SDS011;51710;38.732;-121.358;2022-11-25T08:53:59;9.88;;;5.38;;
64966;SDS011;51710;38.732;-121.358;2022-11-25T08:56:27;10.48;;;5.43;;
64966;SDS011;51710;38.732;-121.358;2022-11-25T08:58:54;9.02;;;5.35;;
64966;SDS011;51710;38.732;-121.358;2022-11-25T09:01:22;13.40;;;6.05;;
64966;SDS011;51710;38.732;-121.358;2022-11-25T09:03:51;8.48;;;5.55;;
64966;SDS011;51710;38.732;-121.358;2022-11-25T09:06:21;11.77;;;6.07;;
64966;SDS011;51710;38.732;-121.358;2022-11-25T09:08:49;9.93;;;6.45;;
64966;SDS011;51710;38.732;-121.358;2022-11-25T09:11:19;10.07;;;5.40;;
64966;SDS011;51710;38.732;-121.358;2022-11-25T09:13:46;10.32;;;5.57;;
64966;SDS011;51710;38.732;-121.358;2022-11-25T09:16:13;9.40;;;5.03;;
64966;SDS011;51710;38.732;-121.358;2022-11-25T09:18:42;9.38;;;5.55;;
64966;SDS011;51710;38.732;-121.358;2022-11-25T09:21:10;10.77;;;5.38;;
64966;SDS011;51710;38.732;-121.358;2022-11-25T09:23:40;10.90;;;5.30;;
64966;SDS011;51710;38.732;-121.358;2022-11-25T09:26:07;9.80;;;5.90;;
64966;SDS011;51710;38.732;-121.358;2022-11-25T09:29:01;10.68;;;6.10;;
64966;SDS011;51710;38.732;-121.358;2022-11-25T09:31:29;9.45;;;5.30;;
64966;SDS011;51710;38.732;-121.358;2022-11-25T09:33:57;10.10;;;5.88;;
64966;SDS011;51710;38.732;-121.358;2022-11-25T09:36:24;11.95;;;6.10;;
64966;SDS011;51710;38.732;-121.358;2022-11-25T09:38:51;9.90;;;5.63;;
64966;SDS011;51710;38.732;-121.358;2022-11-25T09:47:25;9.82;;;5.60;;
64966;SDS011;51710;38.732;-121.358;2022-11-25T09:52:39;11.27;;;5.75;;
64966;SDS011;51710;38.732;-121.358;2022-11-25T09:55:22;9.27;;;5.53;;
64966;SDS011;51710;38.732;-121.358;2022-11-25T10:00:40;8.43;;;4.95;;
64966;SDS011;51710;38.732;-121.358;2022-11-25T10:08:49;11.77;;;5.75;;
64966;SDS011;51710;38.732;-121.358;2022-11-25T10:11:23;8.68;;;5.47;;
64966;SDS011;51710;38.732;-121.358;2022-11-25T10:14:17;13.60;;;6.13;;
64966;SDS011;51710;38.732;-121.358;2022-11-25T10:24:55;10.75;;;6.13;;
64966;SDS011;51710;38.732;-121.358;2022-11-25T10:27:37;8.85;;;5.18;;
64966;SDS011;51710;38.732;-121.358;2022-11-25T10:30:28;9.38;;;5.97;;
64966;SDS011;51710;38.732;-121.358;2022-11-25T10:41:09;8.57;;;5.03;;
64966;SDS011;51710;38.732;-121.358;2022-11-25T10:43:42;8.60;;;5.35;;
64966;SDS011;51710;38.732;-121.358;2022-11-25T10:51:46;10.73;;;5.03;;
64966;SDS011;51710;38.732;-121.358;2022-11-25T10:56:49;8.32;;;4.93;;
64966;SDS011;51710;38.732;-121.358;2022-11-25T10:59:21;12.27;;;5.22;;
64966;SDS011;51710;38.732;-121.358;2022-11-25T11:01:48;8.45;;;5.25;;
64966;SDS011;51710;38.732;-121.358;2022-11-25T11:04:18;9.30;;;5.60;;
64966;SDS011;51710;38.732;-121.358;2022-11-25T11:06:47;10.18;;;5.75;;
64966;SDS011;51710;38.732;-121.358;2022-11-25T11:09:30;10.20;;;5.47;;
64966;SDS011;51710;38.732;-121.358;2022-11-25T11:12:14;9.18;;;5.00;;
64966;SDS011;51710;38.732;-121.358;2022-11-25T11:14:48;8.88;;;5.25;;
64966;SDS011;51710;38.732;-121.358;2022-11-25T11:17:26;9.38;;;4.93;;
64966;SDS011;51710;38.732;-121.358;2022-11-25T11:20:12;9.40;;;5.20;;
64966;SDS011;51710;38.732;-121.358;2022-11-25T11:22:46;9.52;;;6.00;;
64966;SDS011;51710;38.732;-121.358;2022-11-25T11:27:47;10.80;;;5.78;;
64966;SDS011;51710;38.732;-121.358;2022-11-25T11:30:15;8.02;;;4.88;;
64966;SDS011;51710;38.732;-121.358;2022-11-25T11:33:02;9.30;;;5.17;;
64966;SDS011;51710;38.732;-121.358;2022-11-25T11:40:48;10.68;;;4.90;;
64966;SDS011;51710;38.732;-121.358;2022-11-25T11:43:34;11.15;;;5.43;;
64966;SDS011;51710;38.732;-121.358;2022-11-25T11:46:27;10.85;;;5.78;;
64966;SDS011;51710;38.732;-121.358;2022-11-25T11:49:25;9.35;;;5.60;;
64966;SDS011;51710;38.732;-121.358;2022-11-25T11:52:04;16.27;;;5.53;;
64966;SDS011;51710;38.732;-121.358;2022-11-25T11:54:48;11.05;;;6.40;;
64966;SDS011;51710;38.732;-121.358;2022-11-25T12:00:14;9.63;;;5.50;;
64966;SDS011;51710;38.732;-121.358;2022-11-25T12:02:55;10.00;;;5.70;;
64966;SDS011;51710;38.732;-121.358;2022-11-25T12:05:36;9.75;;;5.45;;
64966;SDS011;51710;38.732;-121.358;2022-11-25T12:08:21;8.32;;;5.15;;
64966;SDS011;51710;38.732;-121.358;2022-11-25T12:11:08;9.70;;;5.53;;
64966;SDS011;51710;38.732;-121.358;2022-11-25T12:13:47;8.60;;;5.47;;
64966;SDS011;51710;38.732;-121.358;2022-11-25T12:24:43;8.80;;;5.35;;
64966;SDS011;51710;38.732;-121.358;2022-11-25T12:27:24;10.50;;;6.13;;
64966;SDS011;51710;38.732;-121.358;2022-11-25T12:30:06;7.80;;;4.97;;
64966;SDS011;51710;38.732;-121.358;2022-11-25T12:35:24;13.35;;;5.40;;
64966;SDS011;51710;38.732;-121.358;2022-11-25T12:45:49;12.45;;;5.28;;
64966;SDS011;51710;38.732;-121.358;2022-11-25T12:48:23;9.27;;;5.55;;
64966;SDS011;51710;38.732;-121.358;2022-11-25T12:53:30;9.10;;;5.20;;
64966;SDS011;51710;38.732;-121.358;2022-11-25T12:56:24;11.13;;;6.30;;
64966;SDS011;51710;38.732;-121.358;2022-11-25T12:59:27;10.43;;;6.20;;
64966;SDS011;51710;38.732;-121.358;2022-11-25T13:10:45;9.20;;;5.32;;
64966;SDS011;51710;38.732;-121.358;2022-11-25T13:13:25;10.20;;;5.43;;
64966;SDS011;51710;38.732;-121.358;2022-11-25T13:16:14;6.03;;;4.00;;
64966;SDS011;51710;38.732;-121.358;2022-11-25T13:18:42;8.30;;;4.45;;
64966;SDS011;51710;38.732;-121.358;2022-11-25T13:21:10;9.77;;;5.43;;
64966;SDS011;51710;38.732;-121.358;2022-11-25T13:23:44;9.65;;;5.65;;
64966;SDS011;51710;38.732;-121.358;2022-11-25T13:34:33;8.88;;;5.10;;
64966;SDS011;51710;38.732;-121.358;2022-11-25T13:37:01;10.55;;;4.90;;
64966;SDS011;51710;38.732;-121.358;2022-11-25T13:39:48;11.40;;;5.47;;
64966;SDS011;51710;38.732;-121.358;2022-11-25T13:42:39;7.93;;;4.60;;
64966;SDS011;51710;38.732;-121.358;2022-11-25T13:45:20;8.33;;;5.10;;
64966;SDS011;51710;38.732;-121.358;2022-11-25T13:48:16;8.82;;;5.07;;
64966;SDS011;51710;38.732;-121.358;2022-11-25T13:50:49;7.63;;;5.18;;
64966;SDS011;51710;38.732;-121.358;2022-11-25T13:56:28;9.30;;;5.53;;
64966;SDS011;51710;38.732;-121.358;2022-11-25T14:01:36;10.48;;;5.75;;
64966;SDS011;51710;38.732;-121.358;2022-11-25T14:04:07;11.65;;;6.68;;
64966;SDS011;51710;38.732;-121.358;2022-11-25T14:06:56;9.90;;;6.60;;
64966;SDS011;51710;38.732;-121.358;2022-11-25T14:25:54;16.17;;;9.35;;
64966;SDS011;51710;38.732;-121.358;2022-11-25T14:28:29;13.30;;;7.90;;
64966;SDS011;51710;38.732;-121.358;2022-11-25T14:31:08;12.63;;;8.05;;
64966;SDS011;51710;38.732;-121.358;2022-11-25T14:36:33;14.10;;;7.60;;
64966;SDS011;51710;38.732;-121.358;2022-11-25T14:39:29;13.38;;;8.15;;
64966;SDS011;51710;38.732;-121.358;2022-11-25T14:42:13;15.20;;;7.90;;
64966;SDS011;51710;38.732;-121.358;2022-11-25T14:44:46;14.65;;;8.75;;
64966;SDS011;51710;38.732;-121.358;2022-11-25T14:47:26;14.52;;;9.32;;
64966;SDS011;51710;38.732;-121.358;2022-11-25T14:49:54;16.08;;;9.43;;
64966;SDS011;51710;38.732;-121.358;2022-11-25T14:52:25;13.57;;;8.65;;
64966;SDS011;51710;38.732;-121.358;2022-11-25T14:54:55;13.13;;;8.30;;
64966;SDS011;51710;38.732;-121.358;2022-11-25T14:57:25;12.77;;;7.75;;
64966;SDS011;51710;38.732;-121.358;2022-11-25T15:00:03;17.13;;;8.50;;
64966;SDS011;51710;38.732;-121.358;2022-11-25T15:02:32;13.35;;;8.00;;
64966;SDS011;51710;38.732;-121.358;2022-11-25T15:07:34;14.90;;;8.27;;
64966;SDS011;51710;38.732;-121.358;2022-11-25T15:10:06;14.40;;;8.85;;
64966;SDS011;51710;38.732;-121.358;2022-11-25T15:12:52;15.20;;;8.60;;
64966;SDS011;51710;38.732;-121.358;2022-11-25T15:15:19;13.55;;;8.70;;
64966;SDS011;51710;38.732;-121.358;2022-11-25T15:17:46;13.18;;;8.18;;
64966;SDS011;51710;38.732;-121.358;2022-11-25T15:20:14;17.10;;;8.95;;
64966;SDS011;51710;38.732;-121.358;2022-11-25T15:22:44;16.48;;;9.10;;
64966;SDS011;51710;38.732;-121.358;2022-11-25T15:25:13;15.77;;;8.50;;
64966;SDS011;51710;38.732;-121.358;2022-11-25T15:27:44;17.55;;;8.77;;
64966;SDS011;51710;38.732;-121.358;2022-11-25T15:30:24;13.65;;;8.80;;
64966;SDS011;51710;38.732;-121.358;2022-11-25T15:32:54;12.70;;;8.40;;
64966;SDS011;51710;38.732;-121.358;2022-11-25T15:35:22;14.57;;;8.63;;
64966;SDS011;51710;38.732;-121.358;2022-11-25T15:37:50;15.73;;;9.15;;
64966;SDS011;51710;38.732;-121.358;2022-11-25T15:40:41;15.30;;;8.32;;
64966;SDS011;51710;38.732;-121.358;2022-11-25T15:43:28;16.05;;;9.30;;
64966;SDS011;51710;38.732;-121.358;2022-11-25T15:46:00;20.67;;;11.13;;
64966;SDS011;51710;38.732;-121.358;2022-11-25T15:48:35;16.58;;;9.02;;
64966;SDS011;51710;38.732;-121.358;2022-11-25T15:56:38;16.02;;;9.25;;
64966;SDS011;51710;38.732;-121.358;2022-11-25T16:16:00;17.13;;;8.23;;
64966;SDS011;51710;38.732;-121.358;2022-11-25T16:18:54;14.30;;;8.45;;
64966;SDS011;51710;38.732;-121.358;2022-11-25T16:21:23;14.38;;;8.68;;
64966;SDS011;51710;38.732;-121.358;2022-11-25T16:24:18;15.20;;;7.63;;
64966;SDS011;51710;38.732;-121.358;2022-11-25T16:26:59;13.50;;;8.23;;
64966;SDS011;51710;38.732;-121.358;2022-11-25T16:32:30;13.65;;;8.15;;
64966;SDS011;51710;38.732;-121.358;2022-11-25T16:35:16;12.90;;;7.68;;
64966;SDS011;51710;38.732;-121.358;2022-11-25T16:37:46;19.13;;;8.90;;
64966;SDS011;51710;38.732;-121.358;2022-11-25T16:40:14;13.52;;;7.35;;
64966;SDS011;51710;38.732;-121.358;2022-11-25T16:42:45;17.88;;;8.45;;
64966;SDS011;51710;38.732;-121.358;2022-11-25T16:45:18;12.48;;;8.00;;
64966;SDS011;51710;38.732;-121.358;2022-11-25T16:47:49;14.90;;;8.85;;
64966;SDS011;51710;38.732;-121.358;2022-11-25T16:50:16;15.88;;;8.32;;
64966;SDS011;51710;38.732;-121.358;2022-11-25T16:52:45;14.32;;;8.13;;
64966;SDS011;51710;38.732;-121.358;2022-11-25T16:55:12;14.85;;;8.07;;
64966;SDS011;51710;38.732;-121.358;2022-11-25T16:57:39;14.60;;;8.25;;
64966;SDS011;51710;38.732;-121.358;2022-11-25T17:00:15;14.27;;;8.05;;